Half Moon Caye, Belize

10:55 AM CST on July 02, 2015 (GMT -0600)
Philip S W Goldson International | | Change Station
CLOSE
Current Station
Airport
Location: Belize,
Elevation: 16 ft
Nearby Weather Stations

Elev 16 ft 17.54 °N, 88.31 °W | Updated 40 minutes ago

Mostly Cloudy
Mostly Cloudy
--
Feels Like --
N
12
Wind Variable Wind from East

Today
High -- | Low -- °F
--% Chance of Precip.
Yesterday
High -- | Low -- °F
Precip. -- in
5:19 AM 6:28 PM
Full, 100% visible
Pressure --
Visibility 6.2 miles
Clouds Mostly Cloudy 1400 ft
Mostly Cloudy 4000 ft
Dew Point Not available.
Humidity Not available.
Rainfall 0.00 in
Snow Depth Not available.
UV 8 out of 12
Pollen Not available.
Air Quality Not available.
Flu Activity Not available.
METAR MZBZ 021615Z 0218/0318 09010KT 9999 SCT020 SCT045 TEMPO 0218/0224 5000 SHRA BKN014 PROB40 TEMPO 0218/0222 11015G30KT 3000 TSRA SCT012CB BKN040 PROB30 TEMPO 0300/0306 5000 SHRA BKN014

More Conditions Fewer Conditions

Pressure --
Visibility 6.2 miles
Clouds Mostly Cloudy 1400 ft
Mostly Cloudy 4000 ft
Dew Point Not available.
Humidity Not available.
Rainfall 0.00 in
Snow Depth Not available.
UV 8 out of 12
Pollen Not available.
Air Quality Not available.
Flu Activity Not available.
METAR MZBZ 021615Z 0218/0318 09010KT 9999 SCT020 SCT045 TEMPO 0218/0224 5000 SHRA BKN014 PROB40 TEMPO 0218/0222 11015G30KT 3000 TSRA SCT012CB BKN040 PROB30 TEMPO 0300/0306 5000 SHRA BKN014

More Conditions Fewer Conditions

10-Day Weather Forecast

×

Almanac

Astronomy

Jul. 02, 2015 Rise Set
Actual Time
Civil Twilight
Nautical Twilight
Astronomical Twilight
Moon
Length of Visible Light
Length of Day
Tomorrow will be .
, % of the Moon is Illuminated

Today's Extremes

Country Highs Country Lows

Community

WunderPhotos

Upload Photos

1,834,498 photos uploaded!

WunderBlogs® & News

Nearby

Air Quality

  Air Quality AQ Index Pollutant
Not available.

Snow Depth

Station Depth Elevation

Earthquake Activity

City Distance Mag. Time & Date
Minimum magnitude displayed is 2.5.

Coastal Water Temperatures

Place Temperature

Stations

Nearby Weather Stations

Station Location Temp. Windchill Dew Point Humidity Wind Precip. Elev Updated Type